sensor_id;sensor_type;location;lat;lon;timestamp;pressure;altitude;pressure_sealevel;temperature;humidity
43480;BME280;29067;35.492;-97.520;2023-10-13T00:01:22;95764.97;;;18.18;62.49
43480;BME280;29067;35.492;-97.520;2023-10-13T00:03:50;95770.44;;;17.95;63.16
43480;BME280;29067;35.492;-97.520;2023-10-13T00:06:18;95781.60;;;17.47;63.90
43480;BME280;29067;35.492;-97.520;2023-10-13T00:08:47;95782.24;;;17.96;63.02
43480;BME280;29067;35.492;-97.520;2023-10-13T00:11:16;95790.91;;;17.14;65.45
43480;BME280;29067;35.492;-97.520;2023-10-13T00:13:44;95794.40;;;17.44;66.16
43480;BME280;29067;35.492;-97.520;2023-10-13T00:16:12;95793.67;;;16.73;67.09
43480;BME280;29067;35.492;-97.520;2023-10-13T00:18:39;95801.38;;;17.24;65.53
43480;BME280;29067;35.492;-97.520;2023-10-13T00:21:08;95808.20;;;16.25;68.14
43480;BME280;29067;35.492;-97.520;2023-10-13T00:23:36;95812.90;;;15.94;70.95
43480;BME280;29067;35.492;-97.520;2023-10-13T00:26:04;95814.70;;;17.43;67.23
43480;BME280;29067;35.492;-97.520;2023-10-13T00:28:32;95819.12;;;15.81;71.02
43480;BME280;29067;35.492;-97.520;2023-10-13T00:31:01;95813.68;;;17.57;67.00
43480;BME280;29067;35.492;-97.520;2023-10-13T00:33:29;95819.37;;;17.32;66.91
43480;BME280;29067;35.492;-97.520;2023-10-13T00:35:57;95820.35;;;17.79;65.64
43480;BME280;29067;35.492;-97.520;2023-10-13T00:38:25;95823.28;;;17.64;66.16
43480;BME280;29067;35.492;-97.520;2023-10-13T00:40:53;95823.73;;;17.50;66.37
43480;BME280;29067;35.492;-97.520;2023-10-13T00:43:22;95829.28;;;18.21;64.97
43480;BME280;29067;35.492;-97.520;2023-10-13T00:45:52;95837.51;;;17.56;66.04
43480;BME280;29067;35.492;-97.520;2023-10-13T00:48:21;95837.28;;;16.80;68.27
43480;BME280;29067;35.492;-97.520;2023-10-13T00:50:49;95829.83;;;16.94;67.78
43480;BME280;29067;35.492;-97.520;2023-10-13T00:53:17;95837.21;;;16.94;68.22
43480;BME280;29067;35.492;-97.520;2023-10-13T00:55:46;95829.19;;;17.44;68.14
43480;BME280;29067;35.492;-97.520;2023-10-13T00:58:16;95833.87;;;17.44;68.81
43480;BME280;29067;35.492;-97.520;2023-10-13T01:00:45;95836.79;;;16.29;72.65
43480;BME280;29067;35.492;-97.520;2023-10-13T01:03:14;95835.77;;;16.22;70.82
43480;BME280;29067;35.492;-97.520;2023-10-13T01:05:48;95850.15;;;16.93;70.06
43480;BME280;29067;35.492;-97.520;2023-10-13T01:08:16;95850.11;;;16.19;73.31
43480;BME280;29067;35.492;-97.520;2023-10-13T01:10:44;95840.49;;;16.42;73.26
43480;BME280;29067;35.492;-97.520;2023-10-13T01:13:13;95856.82;;;15.77;75.45
43480;BME280;29067;35.492;-97.520;2023-10-13T01:15:41;95855.27;;;16.59;72.24
43480;BME280;29067;35.492;-97.520;2023-10-13T01:18:11;95857.04;;;15.68;75.78
43480;BME280;29067;35.492;-97.520;2023-10-13T01:20:39;95859.97;;;16.14;73.80
43480;BME280;29067;35.492;-97.520;2023-10-13T01:23:11;95861.23;;;15.89;74.98
43480;BME280;29067;35.492;-97.520;2023-10-13T01:25:40;95852.08;;;16.69;73.57
43480;BME280;29067;35.492;-97.520;2023-10-13T01:28:08;95863.60;;;15.06;79.19
43480;BME280;29067;35.492;-97.520;2023-10-13T01:30:37;95857.75;;;16.25;74.53
43480;BME280;29067;35.492;-97.520;2023-10-13T01:33:08;95863.82;;;15.43;76.89
43480;BME280;29067;35.492;-97.520;2023-10-13T01:35:39;95863.36;;;16.92;74.23
43480;BME280;29067;35.492;-97.520;2023-10-13T01:38:08;95860.96;;;16.39;73.97
43480;BME280;29067;35.492;-97.520;2023-10-13T01:40:39;95862.95;;;16.37;74.07
43480;BME280;29067;35.492;-97.520;2023-10-13T01:43:13;95860.38;;;16.37;74.33
43480;BME280;29067;35.492;-97.520;2023-10-13T01:45:43;95867.40;;;16.89;70.76
43480;BME280;29067;35.492;-97.520;2023-10-13T01:48:11;95862.75;;;16.79;72.53
43480;BME280;29067;35.492;-97.520;2023-10-13T01:50:40;95861.40;;;15.59;74.07
43480;BME280;29067;35.492;-97.520;2023-10-13T01:53:09;95860.26;;;16.58;73.37
43480;BME280;29067;35.492;-97.520;2023-10-13T01:55:38;95866.69;;;15.27;77.44
43480;BME280;29067;35.492;-97.520;2023-10-13T01:58:06;95861.88;;;16.46;76.59
43480;BME280;29067;35.492;-97.520;2023-10-13T02:00:34;95862.37;;;15.28;78.34
43480;BME280;29067;35.492;-97.520;2023-10-13T02:03:02;95864.40;;;15.29;80.65
43480;BME280;29067;35.492;-97.520;2023-10-13T02:05:32;95868.12;;;14.76;82.66
43480;BME280;29067;35.492;-97.520;2023-10-13T02:08:02;95873.01;;;15.83;79.00
43480;BME280;29067;35.492;-97.520;2023-10-13T02:10:31;95878.37;;;15.00;81.10
43480;BME280;29067;35.492;-97.520;2023-10-13T02:13:00;95880.15;;;15.95;76.57
43480;BME280;29067;35.492;-97.520;2023-10-13T02:15:29;95880.21;;;15.99;78.26
43480;BME280;29067;35.492;-97.520;2023-10-13T02:17:57;95881.68;;;15.82;78.78
43480;BME280;29067;35.492;-97.520;2023-10-13T02:20:26;95876.23;;;15.85;77.08
43480;BME280;29067;35.492;-97.520;2023-10-13T02:22:54;95878.43;;;15.61;78.56
43480;BME280;29067;35.492;-97.520;2023-10-13T02:25:22;95876.10;;;16.05;76.40
43480;BME280;29067;35.492;-97.520;2023-10-13T02:27:55;95887.29;;;14.78;86.58
43480;BME280;29067;35.492;-97.520;2023-10-13T02:30:23;95884.76;;;15.52;81.70
43480;BME280;29067;35.492;-97.520;2023-10-13T02:32:51;95888.06;;;15.35;81.83
43480;BME280;29067;35.492;-97.520;2023-10-13T02:35:19;95889.85;;;15.33;82.56
43480;BME280;29067;35.492;-97.520;2023-10-13T02:37:47;95884.54;;;14.30;89.35
43480;BME280;29067;35.492;-97.520;2023-10-13T02:40:15;95882.63;;;15.54;85.06
43480;BME280;29067;35.492;-97.520;2023-10-13T02:42:43;95890.73;;;14.99;85.55
43480;BME280;29067;35.492;-97.520;2023-10-13T02:45:11;95874.48;;;15.52;81.96
43480;BME280;29067;35.492;-97.520;2023-10-13T02:47:39;95877.75;;;15.20;84.20
43480;BME280;29067;35.492;-97.520;2023-10-13T02:50:07;95877.44;;;15.91;81.36
43480;BME280;29067;35.492;-97.520;2023-10-13T02:52:35;95875.04;;;15.19;86.54
43480;BME280;29067;35.492;-97.520;2023-10-13T02:55:03;95870.15;;;15.50;84.62
43480;BME280;29067;35.492;-97.520;2023-10-13T02:57:31;95878.43;;;15.15;85.28
43480;BME280;29067;35.492;-97.520;2023-10-13T02:59:58;95896.59;;;15.90;82.63
43480;BME280;29067;35.492;-97.520;2023-10-13T03:02:27;95902.42;;;15.57;83.09
43480;BME280;29067;35.492;-97.520;2023-10-13T03:04:56;95895.04;;;16.37;78.65
43480;BME280;29067;35.492;-97.520;2023-10-13T03:07:25;95886.11;;;15.79;80.87
43480;BME280;29067;35.492;-97.520;2023-10-13T03:09:53;95904.06;;;16.11;79.95
43480;BME280;29067;35.492;-97.520;2023-10-13T03:12:22;95908.83;;;15.32;84.22
43480;BME280;29067;35.492;-97.520;2023-10-13T03:14:49;95910.77;;;15.89;83.66
43480;BME280;29067;35.492;-97.520;2023-10-13T03:17:17;95905.15;;;15.75;86.39
43480;BME280;29067;35.492;-97.520;2023-10-13T03:19:46;95906.63;;;16.26;83.81
43480;BME280;29067;35.492;-97.520;2023-10-13T03:22:14;95896.75;;;15.29;86.42
43480;BME280;29067;35.492;-97.520;2023-10-13T03:24:42;95892.71;;;16.51;80.15
43480;BME280;29067;35.492;-97.520;2023-10-13T03:27:10;95895.20;;;16.58;79.22
43480;BME280;29067;35.492;-97.520;2023-10-13T03:29:40;95896.02;;;16.08;80.84
43480;BME280;29067;35.492;-97.520;2023-10-13T03:32:08;95899.39;;;15.78;80.34
43480;BME280;29067;35.492;-97.520;2023-10-13T03:34:36;95899.38;;;15.06;87.88
43480;BME280;29067;35.492;-97.520;2023-10-13T03:37:04;95910.31;;;15.02;91.60
43480;BME280;29067;35.492;-97.520;2023-10-13T03:39:32;95902.52;;;16.58;84.71
43480;BME280;29067;35.492;-97.520;2023-10-13T03:42:00;95902.92;;;15.75;86.12
43480;BME280;29067;35.492;-97.520;2023-10-13T03:44:28;95898.59;;;16.05;82.62
43480;BME280;29067;35.492;-97.520;2023-10-13T03:46:56;95900.20;;;15.49;86.02
43480;BME280;29067;35.492;-97.520;2023-10-13T03:49:24;95898.67;;;15.53;85.24
43480;BME280;29067;35.492;-97.520;2023-10-13T03:51:52;95894.01;;;15.89;84.03
43480;BME280;29067;35.492;-97.520;2023-10-13T03:54:20;95910.25;;;14.51;93.50
43480;BME280;29067;35.492;-97.520;2023-10-13T03:56:48;95902.02;;;15.79;87.94
43480;BME280;29067;35.492;-97.520;2023-10-13T03:59:16;95901.21;;;16.09;85.74
43480;BME280;29067;35.492;-97.520;2023-10-13T04:01:44;95901.61;;;16.11;83.72
43480;BME280;29067;35.492;-97.520;2023-10-13T04:04:13;95896.52;;;15.82;86.93
43480;BME280;29067;35.492;-97.520;2023-10-13T04:06:41;95897.03;;;15.25;88.62
43480;BME280;29067;35.492;-97.520;2023-10-13T04:09:09;95897.24;;;15.95;85.18
43480;BME280;29067;35.492;-97.520;2023-10-13T04:11:37;95891.92;;;17.13;80.36
43480;BME280;29067;35.492;-97.520;2023-10-13T04:14:05;95895.85;;;15.37;87.68
43480;BME280;29067;35.492;-97.520;2023-10-13T04:16:32;95894.35;;;15.97;86.36
43480;BME280;29067;35.492;-97.520;2023-10-13T04:19:01;95906.94;;;14.79;91.84
43480;BME280;29067;35.492;-97.520;2023-10-13T04:21:29;95912.59;;;15.99;87.80
43480;BME280;29067;35.492;-97.520;2023-10-13T04:23:57;95924.35;;;16.57;88.74
43480;BME280;29067;35.492;-97.520;2023-10-13T04:26:25;95928.13;;;17.01;86.32
43480;BME280;29067;35.492;-97.520;2023-10-13T04:28:52;95924.29;;;16.25;87.34
43480;BME280;29067;35.492;-97.520;2023-10-13T04:31:20;95916.39;;;16.23;89.11
43480;BME280;29067;35.492;-97.520;2023-10-13T04:33:48;95915.15;;;15.16;94.37
43480;BME280;29067;35.492;-97.520;2023-10-13T04:36:17;95911.11;;;15.90;98.11
43480;BME280;29067;35.492;-97.520;2023-10-13T04:38:45;95931.11;;;15.19;100.00
43480;BME280;29067;35.492;-97.520;2023-10-13T04:41:13;95924.31;;;16.39;93.26
43480;BME280;29067;35.492;-97.520;2023-10-13T04:43:41;95934.36;;;15.78;97.10
43480;BME280;29067;35.492;-97.520;2023-10-13T04:46:09;95930.88;;;16.02;95.34
43480;BME280;29067;35.492;-97.520;2023-10-13T04:48:36;95931.93;;;15.42;100.00
43480;BME280;29067;35.492;-97.520;2023-10-13T04:51:04;95932.48;;;16.34;94.21
43480;BME280;29067;35.492;-97.520;2023-10-13T04:53:32;95924.17;;;16.33;95.46
43480;BME280;29067;35.492;-97.520;2023-10-13T04:56:00;95928.40;;;16.57;93.67
43480;BME280;29067;35.492;-97.520;2023-10-13T04:58:29;95952.92;;;17.23;88.67
43480;BME280;29067;35.492;-97.520;2023-10-13T05:00:59;95959.60;;;18.34;80.30
43480;BME280;29067;35.492;-97.520;2023-10-13T05:03:27;95967.62;;;17.92;81.30
43480;BME280;29067;35.492;-97.520;2023-10-13T05:05:55;95980.35;;;18.23;81.25
43480;BME280;29067;35.492;-97.520;2023-10-13T05:08:23;95988.21;;;17.47;82.66
43480;BME280;29067;35.492;-97.520;2023-10-13T05:10:52;95993.25;;;16.09;91.01
43480;BME280;29067;35.492;-97.520;2023-10-13T05:13:20;96000.20;;;17.62;87.85
43480;BME280;29067;35.492;-97.520;2023-10-13T05:15:49;95997.86;;;17.33;84.74
43480;BME280;29067;35.492;-97.520;2023-10-13T05:18:17;95996.06;;;17.26;86.26
43480;BME280;29067;35.492;-97.520;2023-10-13T05:20:45;96002.24;;;16.80;87.78
43480;BME280;29067;35.492;-97.520;2023-10-13T05:23:14;96014.93;;;16.16;93.66
43480;BME280;29067;35.492;-97.520;2023-10-13T05:25:42;96019.83;;;16.13;91.52
43480;BME280;29067;35.492;-97.520;2023-10-13T05:28:10;96014.77;;;17.03;89.18
43480;BME280;29067;35.492;-97.520;2023-10-13T05:30:37;96005.25;;;15.79;93.70
43480;BME280;29067;35.492;-97.520;2023-10-13T05:33:05;95987.76;;;16.68;93.10
43480;BME280;29067;35.492;-97.520;2023-10-13T05:35:32;95987.01;;;16.68;88.64
43480;BME280;29067;35.492;-97.520;2023-10-13T05:38:01;96004.36;;;17.22;86.12
43480;BME280;29067;35.492;-97.520;2023-10-13T05:40:29;95997.50;;;16.19;90.22
43480;BME280;29067;35.492;-97.520;2023-10-13T05:42:57;95990.54;;;16.93;92.86
43480;BME280;29067;35.492;-97.520;2023-10-13T05:45:24;95987.12;;;16.28;92.59
43480;BME280;29067;35.492;-97.520;2023-10-13T05:47:52;95991.69;;;17.12;95.37
43480;BME280;29067;35.492;-97.520;2023-10-13T05:50:20;95987.85;;;18.32;85.54
43480;BME280;29067;35.492;-97.520;2023-10-13T05:52:47;95988.10;;;16.30;99.93
43480;BME280;29067;35.492;-97.520;2023-10-13T05:55:17;95979.93;;;16.14;97.18
43480;BME280;29067;35.492;-97.520;2023-10-13T05:57:45;95994.86;;;17.01;94.73
43480;BME280;29067;35.492;-97.520;2023-10-13T06:00:13;95995.27;;;16.15;98.06
43480;BME280;29067;35.492;-97.520;2023-10-13T06:02:41;95994.27;;;17.25;89.06
43480;BME280;29067;35.492;-97.520;2023-10-13T06:05:10;96000.89;;;17.11;89.74
43480;BME280;29067;35.492;-97.520;2023-10-13T06:07:39;95995.49;;;16.51;93.09
43480;BME280;29067;35.492;-97.520;2023-10-13T06:10:08;95993.39;;;15.84;95.99
43480;BME280;29067;35.492;-97.520;2023-10-13T06:12:36;95983.12;;;16.50;91.87
43480;BME280;29067;35.492;-97.520;2023-10-13T06:15:04;95977.65;;;16.56;89.43
43480;BME280;29067;35.492;-97.520;2023-10-13T06:17:32;95973.86;;;17.02;84.63
43480;BME280;29067;35.492;-97.520;2023-10-13T06:19:59;95965.26;;;17.28;83.44
43480;BME280;29067;35.492;-97.520;2023-10-13T06:22:27;95973.42;;;16.89;81.79
43480;BME280;29067;35.492;-97.520;2023-10-13T06:24:55;95988.70;;;18.34;75.52
43480;BME280;29067;35.492;-97.520;2023-10-13T06:27:23;95985.94;;;17.55;75.74
43480;BME280;29067;35.492;-97.520;2023-10-13T06:29:52;95984.71;;;16.94;77.55
43480;BME280;29067;35.492;-97.520;2023-10-13T06:32:20;95984.24;;;17.66;73.09
43480;BME280;29067;35.492;-97.520;2023-10-13T06:34:48;95990.00;;;18.14;72.21
43480;BME280;29067;35.492;-97.520;2023-10-13T06:37:17;95995.06;;;18.82;70.78
43480;BME280;29067;35.492;-97.520;2023-10-13T06:39:45;95999.53;;;17.99;73.03
43480;BME280;29067;35.492;-97.520;2023-10-13T06:42:13;95999.12;;;18.01;74.20
43480;BME280;29067;35.492;-97.520;2023-10-13T06:44:40;96007.74;;;18.48;73.55
43480;BME280;29067;35.492;-97.520;2023-10-13T06:47:08;95999.40;;;18.18;73.93
43480;BME280;29067;35.492;-97.520;2023-10-13T06:49:36;96007.60;;;17.91;75.41
43480;BME280;29067;35.492;-97.520;2023-10-13T06:52:03;96001.91;;;19.13;74.17
43480;BME280;29067;35.492;-97.520;2023-10-13T06:54:32;96002.60;;;19.11;73.15
43480;BME280;29067;35.492;-97.520;2023-10-13T06:57:00;96010.07;;;18.13;75.79
43480;BME280;29067;35.492;-97.520;2023-10-13T06:59:29;96015.03;;;17.88;79.94
43480;BME280;29067;35.492;-97.520;2023-10-13T07:01:56;96016.51;;;18.35;79.48
43480;BME280;29067;35.492;-97.520;2023-10-13T07:04:24;96017.63;;;18.17;78.67
43480;BME280;29067;35.492;-97.520;2023-10-13T07:06:51;96019.27;;;17.99;79.40
43480;BME280;29067;35.492;-97.520;2023-10-13T07:09:19;96016.71;;;19.09;75.79
43480;BME280;29067;35.492;-97.520;2023-10-13T07:11:47;96016.95;;;18.39;74.47
43480;BME280;29067;35.492;-97.520;2023-10-13T07:14:14;96024.06;;;18.88;76.33
43480;BME280;29067;35.492;-97.520;2023-10-13T07:16:44;96017.01;;;19.97;72.63
43480;BME280;29067;35.492;-97.520;2023-10-13T07:19:22;96020.46;;;18.36;72.67
43480;BME280;29067;35.492;-97.520;2023-10-13T07:21:50;96020.50;;;18.01;76.90
43480;BME280;29067;35.492;-97.520;2023-10-13T07:24:18;96022.13;;;18.05;75.27
43480;BME280;29067;35.492;-97.520;2023-10-13T07:26:46;96024.68;;;18.01;75.06
43480;BME280;29067;35.492;-97.520;2023-10-13T07:29:14;96023.74;;;19.07;72.64
43480;BME280;29067;35.492;-97.520;2023-10-13T07:31:41;96027.81;;;18.56;74.44
43480;BME280;29067;35.492;-97.520;2023-10-13T07:34:10;96029.60;;;18.03;76.45
43480;BME280;29067;35.492;-97.520;2023-10-13T07:36:39;96031.88;;;18.74;73.93
43480;BME280;29067;35.492;-97.520;2023-10-13T07:39:07;96029.89;;;18.26;75.20
43480;BME280;29067;35.492;-97.520;2023-10-13T07:41:35;96027.50;;;19.03;71.51
43480;BME280;29067;35.492;-97.520;2023-10-13T07:44:03;96024.40;;;19.66;70.67
43480;BME280;29067;35.492;-97.520;2023-10-13T07:46:31;96025.63;;;18.66;71.70
43480;BME280;29067;35.492;-97.520;2023-10-13T07:48:58;96021.47;;;19.50;69.78
43480;BME280;29067;35.492;-97.520;2023-10-13T07:51:26;96034.92;;;18.58;70.75
43480;BME280;29067;35.492;-97.520;2023-10-13T07:53:54;96035.23;;;18.34;71.89
43480;BME280;29067;35.492;-97.520;2023-10-13T07:56:21;96033.32;;;18.41;72.79
43480;BME280;29067;35.492;-97.520;2023-10-13T07:58:49;96035.87;;;18.76;72.67
43480;BME280;29067;35.492;-97.520;2023-10-13T08:01:17;96036.31;;;18.02;73.88
43480;BME280;29067;35.492;-97.520;2023-10-13T08:03:46;96040.32;;;17.87;77.01
43480;BME280;29067;35.492;-97.520;2023-10-13T08:06:15;96041.95;;;17.57;78.30
43480;BME280;29067;35.492;-97.520;2023-10-13T08:08:43;96036.76;;;18.71;73.98
43480;BME280;29067;35.492;-97.520;2023-10-13T08:11:12;96038.73;;;17.19;78.06
43480;BME280;29067;35.492;-97.520;2023-10-13T08:13:41;96039.04;;;17.36;79.52
43480;BME280;29067;35.492;-97.520;2023-10-13T08:16:09;96038.19;;;17.82;76.32
43480;BME280;29067;35.492;-97.520;2023-10-13T08:18:36;96042.15;;;18.31;77.92
43480;BME280;29067;35.492;-97.520;2023-10-13T08:21:04;96041.01;;;17.38;78.66
43480;BME280;29067;35.492;-97.520;2023-10-13T08:23:32;96042.63;;;19.25;74.45
43480;BME280;29067;35.492;-97.520;2023-10-13T08:26:08;96044.78;;;18.49;74.17
43480;BME280;29067;35.492;-97.520;2023-10-13T08:28:36;96042.93;;;17.97;75.49
43480;BME280;29067;35.492;-97.520;2023-10-13T08:31:05;96042.16;;;18.13;75.68
43480;BME280;29067;35.492;-97.520;2023-10-13T08:33:33;96041.81;;;19.02;72.27
43480;BME280;29067;35.492;-97.520;2023-10-13T08:36:01;96047.61;;;19.11;72.36
43480;BME280;29067;35.492;-97.520;2023-10-13T08:38:29;96046.58;;;20.49;69.85
43480;BME280;29067;35.492;-97.520;2023-10-13T08:40:59;96051.74;;;18.89;72.10
43480;BME280;29067;35.492;-97.520;2023-10-13T08:43:28;96052.62;;;18.93;69.83
43480;BME280;29067;35.492;-97.520;2023-10-13T08:45:59;96058.09;;;18.48;71.25
43480;BME280;29067;35.492;-97.520;2023-10-13T08:48:27;96057.55;;;18.57;69.31
43480;BME280;29067;35.492;-97.520;2023-10-13T08:50:55;96068.04;;;18.97;69.24
43480;BME280;29067;35.492;-97.520;2023-10-13T08:53:24;96070.61;;;19.13;69.63
43480;BME280;29067;35.492;-97.520;2023-10-13T08:55:53;96077.61;;;18.87;69.33
43480;BME280;29067;35.492;-97.520;2023-10-13T08:58:24;96080.76;;;18.67;71.59
43480;BME280;29067;35.492;-97.520;2023-10-13T09:00:51;96078.39;;;19.88;67.91
43480;BME280;29067;35.492;-97.520;2023-10-13T09:03:21;96079.00;;;17.70;72.04
43480;BME280;29067;35.492;-97.520;2023-10-13T09:05:49;96088.98;;;19.04;70.37
43480;BME280;29067;35.492;-97.520;2023-10-13T09:08:25;96097.10;;;18.59;70.38
43480;BME280;29067;35.492;-97.520;2023-10-13T09:10:58;96101.91;;;18.88;69.60
43480;BME280;29067;35.492;-97.520;2023-10-13T09:13:35;96114.17;;;17.87;75.61
43480;BME280;29067;35.492;-97.520;2023-10-13T09:16:10;96121.22;;;19.56;70.42
43480;BME280;29067;35.492;-97.520;2023-10-13T09:18:38;96147.59;;;18.53;73.38
43480;BME280;29067;35.492;-97.520;2023-10-13T09:21:06;96163.89;;;17.52;78.25
43480;BME280;29067;35.492;-97.520;2023-10-13T09:23:34;96172.19;;;17.30;79.67
43480;BME280;29067;35.492;-97.520;2023-10-13T09:26:06;96179.63;;;17.60;79.48
43480;BME280;29067;35.492;-97.520;2023-10-13T09:28:34;96172.73;;;18.22;77.54
43480;BME280;29067;35.492;-97.520;2023-10-13T09:31:02;96181.71;;;18.47;76.12
43480;BME280;29067;35.492;-97.520;2023-10-13T09:33:30;96192.64;;;17.62;77.53
43480;BME280;29067;35.492;-97.520;2023-10-13T09:35:59;96194.39;;;18.53;74.46
43480;BME280;29067;35.492;-97.520;2023-10-13T09:38:28;96199.11;;;17.99;76.05
43480;BME280;29067;35.492;-97.520;2023-10-13T09:40:57;96207.87;;;17.99;77.42
43480;BME280;29067;35.492;-97.520;2023-10-13T09:43:26;96209.25;;;17.50;78.67
43480;BME280;29067;35.492;-97.520;2023-10-13T09:45:59;96213.53;;;18.28;75.56
43480;BME280;29067;35.492;-97.520;2023-10-13T09:48:32;96223.25;;;17.97;77.24
43480;BME280;29067;35.492;-97.520;2023-10-13T09:51:02;96229.39;;;16.95;80.43
43480;BME280;29067;35.492;-97.520;2023-10-13T09:53:32;96231.79;;;17.40;77.24
43480;BME280;29067;35.492;-97.520;2023-10-13T09:56:05;96234.85;;;17.43;76.46
43480;BME280;29067;35.492;-97.520;2023-10-13T09:58:35;96243.65;;;16.53;76.05
43480;BME280;29067;35.492;-97.520;2023-10-13T10:01:07;96248.97;;;14.74;69.11
43480;BME280;29067;35.492;-97.520;2023-10-13T10:03:44;96254.27;;;14.99;62.97
43480;BME280;29067;35.492;-97.520;2023-10-13T10:06:22;96266.76;;;15.35;58.18
43480;BME280;29067;35.492;-97.520;2023-10-13T10:08:50;96270.21;;;15.45;57.03
43480;BME280;29067;35.492;-97.520;2023-10-13T10:11:57;96274.28;;;15.55;56.54
43480;BME280;29067;35.492;-97.520;2023-10-13T10:14:44;96288.07;;;14.91;57.03
43480;BME280;29067;35.492;-97.520;2023-10-13T10:17:15;96294.87;;;15.14;58.12
43480;BME280;29067;35.492;-97.520;2023-10-13T10:19:48;96301.84;;;16.01;55.48
43480;BME280;29067;35.492;-97.520;2023-10-13T10:22:26;96316.56;;;16.05;55.27
43480;BME280;29067;35.492;-97.520;2023-10-13T10:24:57;96320.81;;;16.17;52.86
43480;BME280;29067;35.492;-97.520;2023-10-13T10:27:26;96328.23;;;16.05;50.80
43480;BME280;29067;35.492;-97.520;2023-10-13T10:29:55;96327.41;;;15.90;48.31
43480;BME280;29067;35.492;-97.520;2023-10-13T10:32:33;96344.80;;;14.69;48.15
43480;BME280;29067;35.492;-97.520;2023-10-13T10:35:06;96347.19;;;14.93;48.89
43480;BME280;29067;35.492;-97.520;2023-10-13T10:37:36;96358.73;;;15.17;46.40
43480;BME280;29067;35.492;-97.520;2023-10-13T10:40:08;96368.07;;;14.59;46.82
43480;BME280;29067;35.492;-97.520;2023-10-13T10:42:36;96382.17;;;13.85;47.98
43480;BME280;29067;35.492;-97.520;2023-10-13T10:45:08;96384.84;;;14.70;45.88
43480;BME280;29067;35.492;-97.520;2023-10-13T10:47:38;96395.86;;;14.83;45.50
43480;BME280;29067;35.492;-97.520;2023-10-13T10:50:26;96405.02;;;14.47;46.00
43480;BME280;29067;35.492;-97.520;2023-10-13T10:52:54;96422.66;;;13.95;46.21
43480;BME280;29067;35.492;-97.520;2023-10-13T10:55:22;96425.80;;;12.80;47.04
43480;BME280;29067;35.492;-97.520;2023-10-13T10:57:59;96436.55;;;13.06;47.34
43480;BME280;29067;35.492;-97.520;2023-10-13T11:03:01;96455.02;;;12.08;48.79
43480;BME280;29067;35.492;-97.520;2023-10-13T11:05:30;96454.60;;;12.59;47.35
43480;BME280;29067;35.492;-97.520;2023-10-13T11:07:58;96462.70;;;12.53;47.26
43480;BME280;29067;35.492;-97.520;2023-10-13T11:10:26;96473.68;;;12.55;48.02
43480;BME280;29067;35.492;-97.520;2023-10-13T11:12:55;96477.52;;;11.94;49.73
43480;BME280;29067;35.492;-97.520;2023-10-13T11:15:23;96477.93;;;13.05;48.17
43480;BME280;29067;35.492;-97.520;2023-10-13T11:17:51;96486.65;;;13.14;48.21
43480;BME280;29067;35.492;-97.520;2023-10-13T11:20:20;96493.47;;;12.49;48.45
43480;BME280;29067;35.492;-97.520;2023-10-13T11:22:48;96508.66;;;12.22;48.71
43480;BME280;29067;35.492;-97.520;2023-10-13T11:25:25;96517.87;;;11.95;49.20
43480;BME280;29067;35.492;-97.520;2023-10-13T11:27:54;96528.32;;;11.91;48.28
43480;BME280;29067;35.492;-97.520;2023-10-13T11:30:22;96527.73;;;11.32;49.99
43480;BME280;29067;35.492;-97.520;2023-10-13T11:32:58;96535.94;;;10.87;50.12
43480;BME280;29067;35.492;-97.520;2023-10-13T11:35:26;96541.07;;;11.83;48.72
43480;BME280;29067;35.492;-97.520;2023-10-13T11:37:54;96546.58;;;12.18;49.37
43480;BME280;29067;35.492;-97.520;2023-10-13T11:40:22;96550.01;;;13.09;47.95
43480;BME280;29067;35.492;-97.520;2023-10-13T11:42:50;96555.69;;;11.85;48.31
43480;BME280;29067;35.492;-97.520;2023-10-13T11:45:18;96566.86;;;11.48;49.65
43480;BME280;29067;35.492;-97.520;2023-10-13T11:47:47;96583.80;;;10.40;50.92
43480;BME280;29067;35.492;-97.520;2023-10-13T11:50:14;96591.39;;;10.34;51.42
43480;BME280;29067;35.492;-97.520;2023-10-13T11:52:43;96584.77;;;11.42;50.86
43480;BME280;29067;35.492;-97.520;2023-10-13T11:55:10;96610.02;;;10.18;50.96
43480;BME280;29067;35.492;-97.520;2023-10-13T11:57:38;96605.19;;;11.54;49.59
43480;BME280;29067;35.492;-97.520;2023-10-13T12:00:07;96611.42;;;10.98;50.28
43480;BME280;29067;35.492;-97.520;2023-10-13T12:02:34;96619.45;;;10.11;51.59
43480;BME280;29067;35.492;-97.520;2023-10-13T12:05:02;96635.12;;;10.35;50.59
43480;BME280;29067;35.492;-97.520;2023-10-13T12:07:31;96645.94;;;9.65;51.73
43480;BME280;29067;35.492;-97.520;2023-10-13T12:09:58;96651.68;;;9.05;52.43
43480;BME280;29067;35.492;-97.520;2023-10-13T12:12:27;96652.52;;;10.22;50.77
43480;BME280;29067;35.492;-97.520;2023-10-13T12:14:55;96661.45;;;10.80;50.54
43480;BME280;29067;35.492;-97.520;2023-10-13T12:17:25;96668.55;;;9.30;51.20
43480;BME280;29067;35.492;-97.520;2023-10-13T12:19:54;96669.39;;;10.16;51.23
43480;BME280;29067;35.492;-97.520;2023-10-13T12:22:21;96679.93;;;10.01;50.23
43480;BME280;29067;35.492;-97.520;2023-10-13T12:24:49;96688.80;;;9.94;50.31
43480;BME280;29067;35.492;-97.520;2023-10-13T12:27:17;96688.89;;;9.81;50.13
43480;BME280;29067;35.492;-97.520;2023-10-13T12:29:46;96700.07;;;10.55;49.08
43480;BME280;29067;35.492;-97.520;2023-10-13T12:32:14;96715.26;;;9.36;50.47
43480;BME280;29067;35.492;-97.520;2023-10-13T12:34:42;96722.76;;;9.71;49.34
43480;BME280;29067;35.492;-97.520;2023-10-13T12:37:10;96728.40;;;10.03;48.48
43480;BME280;29067;35.492;-97.520;2023-10-13T12:39:38;96737.57;;;9.99;47.61
43480;BME280;29067;35.492;-97.520;2023-10-13T12:42:07;96741.24;;;10.47;47.22
43480;BME280;29067;35.492;-97.520;2023-10-13T12:44:34;96747.82;;;9.46;47.98
43480;BME280;29067;35.492;-97.520;2023-10-13T12:47:02;96749.93;;;10.45;46.90
43480;BME280;29067;35.492;-97.520;2023-10-13T12:49:30;96760.20;;;10.33;47.20
43480;BME280;29067;35.492;-97.520;2023-10-13T12:51:59;96765.18;;;10.02;46.97